Time;durP1;ratioP1;P1;durP2;ratioP2;P2;SDS_P1;SDS_P2;PMS_P1;PMS_P2;Temp;Humidity;BMP_temperature;BMP_pressure;BME280_temperature;BME280_humidity;BME280_pressure;Samples;Min_cycle;Max_cycle;Signal;HPM_P1;HPM_P2
2022/08/31 00:06:15;;;;;;;0.75;0.60;;;14.50;99.90;;;;;;4986902;28;20405;-79
2022/08/31 00:08:41;;;;;;;2.65;0.60;;;14.50;99.90;;;;;;4987698;28;20046;-80
2022/08/31 00:11:12;;;;;;;3.38;0.75;;;14.50;99.90;;;;;;4986085;28;20048;-80
2022/08/31 00:13:38;;;;;;;1.42;0.70;;;14.50;99.90;;;;;;4989017;28;20046;-80
2022/08/31 00:16:05;;;;;;;0.70;0.50;;;14.50;99.90;;;;;;4987429;28;20504;-79
2022/08/31 00:18:31;;;;;;;1.20;0.70;;;14.40;99.90;;;;;;4985635;28;20050;-79
2022/08/31 00:20:56;;;;;;;1.98;0.70;;;14.40;99.90;;;;;;4984890;28;20395;-79
2022/08/31 00:23:22;;;;;;;1.75;1.05;;;14.40;99.90;;;;;;4989490;28;20075;-80
2022/08/31 00:25:48;;;;;;;3.67;0.60;;;14.40;99.90;;;;;;4986897;28;20081;-79
2022/08/31 00:28:15;;;;;;;1.17;0.50;;;14.30;99.90;;;;;;4988365;28;20448;-78
2022/08/31 00:30:42;;;;;;;0.50;0.50;;;14.30;99.90;;;;;;4986682;28;20034;-78
2022/08/31 00:33:10;;;;;;;0.73;0.60;;;14.30;99.90;;;;;;4986807;28;20038;-77
2022/08/31 00:35:37;;;;;;;2.17;0.60;;;14.20;99.90;;;;;;4985623;28;20047;-80
2022/08/31 00:38:04;;;;;;;0.98;0.90;;;14.20;99.90;;;;;;4989694;28;20132;-79
2022/08/31 00:40:31;;;;;;;0.85;0.80;;;14.20;99.90;;;;;;4987150;28;20042;-78
2022/08/31 00:42:58;;;;;;;1.33;0.68;;;14.10;99.90;;;;;;4989532;28;20113;-80
2022/08/31 00:45:24;;;;;;;0.93;0.73;;;14.10;99.90;;;;;;4985238;28;20540;-79
2022/08/31 00:47:51;;;;;;;1.45;0.70;;;14.10;99.90;;;;;;4988518;28;20034;-78
2022/08/31 00:50:18;;;;;;;0.93;0.60;;;14.00;99.90;;;;;;4984782;28;20054;-78
2022/08/31 00:52:49;;;;;;;1.23;0.60;;;14.00;99.90;;;;;;4987066;28;20043;-79
2022/08/31 00:55:35;;;;;;;2.08;1.15;;;13.90;99.90;;;;;;4985607;28;20097;-79
2022/08/31 00:58:05;;;;;;;1.10;0.52;;;13.90;99.90;;;;;;4970025;28;20663;-78
2022/08/31 01:00:31;;;;;;;2.23;0.63;;;13.90;99.90;;;;;;4979746;28;20090;-78
2022/08/31 01:03:00;;;;;;;3.83;0.65;;;13.90;99.90;;;;;;4985302;28;20359;-78
2022/08/31 01:05:27;;;;;;;1.10;0.63;;;13.90;99.90;;;;;;4986012;28;20039;-78
2022/08/31 01:07:53;;;;;;;1.75;0.68;;;14.00;99.90;;;;;;4975756;28;20308;-78
2022/08/31 01:10:22;;;;;;;1.55;0.80;;;14.00;99.90;;;;;;4987837;28;20050;-78
2022/08/31 01:12:51;;;;;;;2.80;1.60;;;14.00;99.90;;;;;;4986106;28;20113;-78
2022/08/31 01:15:18;;;;;;;2.63;0.93;;;14.00;99.90;;;;;;4987590;28;20038;-78
2022/08/31 01:17:47;;;;;;;4.88;0.50;;;14.00;99.90;;;;;;4986583;28;20039;-79
2022/08/31 01:20:20;;;;;;;7.97;0.55;;;14.00;99.90;;;;;;4983519;28;20031;-78
2022/08/31 01:23:11;;;;;;;1.25;0.63;;;14.10;99.90;;;;;;4986914;28;20042;-78
2022/08/31 01:25:39;;;;;;;2.25;0.80;;;14.00;99.90;;;;;;4975672;28;20052;-78
2022/08/31 01:28:07;;;;;;;2.40;0.68;;;14.10;99.90;;;;;;4987023;28;20042;-76
2022/08/31 01:30:33;;;;;;;1.52;0.65;;;14.10;99.90;;;;;;4985042;28;20046;-79
2022/08/31 01:32:59;;;;;;;2.35;0.93;;;14.00;99.90;;;;;;4985769;28;20097;-77
2022/08/31 01:35:25;;;;;;;2.22;0.57;;;14.00;99.90;;;;;;4985036;28;20046;-78
2022/08/31 01:37:52;;;;;;;0.65;0.60;;;14.00;99.90;;;;;;4987600;28;20046;-80
2022/08/31 01:40:18;;;;;;;0.65;0.45;;;14.00;99.90;;;;;;4984359;28;20038;-78
2022/08/31 01:42:43;;;;;;;2.08;0.60;;;14.00;99.90;;;;;;4991873;23;20666;-78
2022/08/31 01:45:11;;;;;;;2.45;0.60;;;14.00;99.90;;;;;;4981529;28;20370;-79
2022/08/31 01:47:38;;;;;;;2.05;0.80;;;13.90;99.90;;;;;;4990694;28;20084;-77
2022/08/31 01:50:05;;;;;;;1.15;0.63;;;13.90;99.90;;;;;;5002283;28;20448;-79
2022/08/31 01:52:32;;;;;;;0.73;0.60;;;13.90;99.90;;;;;;4993584;28;20108;-78
2022/08/31 01:54:59;;;;;;;1.90;0.60;;;13.80;99.90;;;;;;5006505;28;20639;-79
2022/08/31 01:57:25;;;;;;;1.23;0.55;;;13.80;99.90;;;;;;4995621;28;20054;-79
2022/08/31 01:59:51;;;;;;;2.13;0.60;;;13.70;99.90;;;;;;4996931;28;20092;-78
2022/08/31 02:02:16;;;;;;;2.53;0.45;;;13.60;99.90;;;;;;4985637;28;20125;-79
2022/08/31 02:04:42;;;;;;;1.38;0.50;;;13.60;99.90;;;;;;4985973;28;20129;-78
2022/08/31 02:07:08;;;;;;;2.65;0.60;;;13.50;99.90;;;;;;4999356;28;20772;-78
2022/08/31 02:09:33;;;;;;;1.83;0.77;;;13.50;99.90;;;;;;4989813;28;20043;-79
2022/08/31 02:11:59;;;;;;;1.00;0.80;;;13.40;99.90;;;;;;4986670;28;20593;-79
2022/08/31 02:14:25;;;;;;;1.15;0.95;;;13.40;99.90;;;;;;5001775;28;20053;-79
2022/08/31 02:16:51;;;;;;;0.52;0.52;;;13.30;99.90;;;;;;4994520;28;20368;-79
2022/08/31 02:19:17;;;;;;;1.52;0.50;;;13.30;99.90;;;;;;5006141;28;20030;-79
2022/08/31 02:21:42;;;;;;;2.70;0.70;;;13.20;99.90;;;;;;4997752;28;20049;-78
2022/08/31 02:24:11;;;;;;;0.57;0.57;;;13.10;99.90;;;;;;5004288;28;20050;-79
2022/08/31 02:26:37;;;;;;;1.92;0.60;;;13.10;99.90;;;;;;4996954;28;20046;-79
2022/08/31 02:29:03;;;;;;;1.10;0.60;;;13.10;99.90;;;;;;5003693;28;20048;-79
2022/08/31 02:31:28;;;;;;;1.30;0.50;;;13.10;99.90;;;;;;4986967;28;20053;-80
2022/08/31 02:33:54;;;;;;;0.80;0.68;;;12.90;99.90;;;;;;4985305;28;20049;-78
2022/08/31 02:36:20;;;;;;;0.63;0.57;;;12.90;99.90;;;;;;4998155;28;20037;-78
2022/08/31 02:38:45;;;;;;;1.23;0.70;;;12.90;99.90;;;;;;5006236;28;20550;-78
2022/08/31 02:41:11;;;;;;;0.68;0.68;;;12.80;99.90;;;;;;5002697;28;20527;-78
2022/08/31 02:43:37;;;;;;;1.73;0.88;;;12.80;99.90;;;;;;4999542;28;20058;-78
2022/08/31 02:46:02;;;;;;;2.60;0.88;;;12.80;99.90;;;;;;4984849;28;20073;-78
2022/08/31 02:48:28;;;;;;;1.25;0.68;;;12.80;99.90;;;;;;4988873;28;20038;-78
2022/08/31 02:51:00;;;;;;;1.33;0.85;;;12.70;99.90;;;;;;4986918;28;20038;-78
2022/08/31 02:53:26;;;;;;;0.70;0.55;;;12.70;99.90;;;;;;5002720;28;20045;-79
2022/08/31 02:55:52;;;;;;;0.90;0.70;;;12.70;99.90;;;;;;4997044;28;20046;-79
2022/08/31 02:58:17;;;;;;;3.65;0.57;;;12.70;99.90;;;;;;4986186;28;20489;-79
2022/08/31 03:00:45;;;;;;;1.65;0.50;;;12.70;99.90;;;;;;4984273;28;20038;-77
2022/08/31 03:03:11;;;;;;;1.27;0.90;;;12.70;99.90;;;;;;4999923;28;20447;-77
2022/08/31 03:05:37;;;;;;;4.82;1.05;;;12.60;99.90;;;;;;4994776;28;20077;-77
2022/08/31 03:08:03;;;;;;;1.88;1.10;;;12.70;99.90;;;;;;5002150;28;20042;-78
2022/08/31 03:10:29;;;;;;;0.65;0.43;;;12.60;99.90;;;;;;5004857;28;20092;-78
2022/08/31 03:12:55;;;;;;;1.33;0.60;;;12.50;99.90;;;;;;4993730;28;20132;-78
2022/08/31 03:15:23;;;;;;;2.65;0.73;;;12.50;99.90;;;;;;4989037;28;20050;-77
2022/08/31 03:17:49;;;;;;;1.40;0.43;;;12.50;99.90;;;;;;4982974;28;20048;-79
2022/08/31 03:20:17;;;;;;;1.85;0.73;;;12.50;99.90;;;;;;5005388;28;21926;-79
2022/08/31 03:22:42;;;;;;;2.35;1.02;;;12.40;99.90;;;;;;5002832;28;20046;-79
2022/08/31 03:25:09;;;;;;;0.70;0.70;;;12.50;99.90;;;;;;5002455;28;20385;-79
2022/08/31 03:27:36;;;;;;;1.20;0.52;;;12.40;99.90;;;;;;4994553;28;20122;-78
2022/08/31 03:30:03;;;;;;;1.20;0.80;;;12.40;99.90;;;;;;4994580;28;20042;-79
2022/08/31 03:32:29;;;;;;;4.47;1.23;;;12.40;99.90;;;;;;4992871;28;20038;-79
2022/08/31 03:34:58;;;;;;;2.03;0.65;;;12.30;99.90;;;;;;5001566;28;20100;-79
2022/08/31 03:37:24;;;;;;;1.75;0.80;;;12.40;99.90;;;;;;4979966;28;20042;-79
2022/08/31 03:39:50;;;;;;;4.30;1.25;;;12.30;99.90;;;;;;5002524;28;20045;-79
2022/08/31 03:42:16;;;;;;;1.75;0.60;;;12.30;99.90;;;;;;4985859;28;20049;-78
2022/08/31 03:44:42;;;;;;;1.75;0.68;;;12.20;99.90;;;;;;4983963;28;20054;-78
2022/08/31 03:47:08;;;;;;;2.42;0.73;;;12.20;99.90;;;;;;4994157;28;20512;-79
2022/08/31 03:49:34;;;;;;;0.50;0.50;;;12.20;99.90;;;;;;4995752;28;20496;-79
2022/08/31 03:52:01;;;;;;;1.25;0.73;;;12.10;99.90;;;;;;4984253;28;20062;-79
2022/08/31 03:54:26;;;;;;;1.90;0.65;;;12.10;99.90;;;;;;4980726;28;20053;-78
2022/08/31 03:56:52;;;;;;;0.68;0.57;;;12.10;99.90;;;;;;4994265;28;20049;-77
2022/08/31 03:59:18;;;;;;;0.68;0.60;;;12.10;99.90;;;;;;4990840;28;20034;-78
2022/08/31 04:01:44;;;;;;;5.65;0.75;;;12.10;99.90;;;;;;5001173;28;20046;-79
2022/08/31 04:04:14;;;;;;;1.17;0.45;;;12.00;99.90;;;;;;4997784;28;20562;-77
2022/08/31 04:06:41;;;;;;;1.35;0.73;;;12.00;99.90;;;;;;4986686;28;20050;-78
2022/08/31 04:09:07;;;;;;;1.63;0.70;;;12.00;99.90;;;;;;4984444;28;20046;-79
2022/08/31 04:11:32;;;;;;;2.42;0.50;;;11.90;99.90;;;;;;5002561;28;20096;-77
2022/08/31 04:13:58;;;;;;;1.63;1.10;;;11.90;99.90;;;;;;5001810;28;20619;-77
2022/08/31 04:16:25;;;;;;;0.60;0.60;;;11.80;99.90;;;;;;5003950;28;20168;-77
2022/08/31 04:18:51;;;;;;;0.75;0.60;;;11.80;99.90;;;;;;4995670;28;20050;-76
2022/08/31 04:21:20;;;;;;;1.77;0.80;;;11.80;99.90;;;;;;4992352;28;20025;-79
2022/08/31 04:23:48;;;;;;;0.90;0.70;;;11.90;99.90;;;;;;4988199;28;20038;-78
2022/08/31 04:26:23;;;;;;;0.47;0.47;;;11.90;99.90;;;;;;4997772;28;20030;-78
2022/08/31 04:28:49;;;;;;;2.10;0.95;;;11.80;99.90;;;;;;4988221;28;20041;-78
2022/08/31 04:31:16;;;;;;;1.20;0.95;;;11.80;99.90;;;;;;4998248;28;20026;-78
2022/08/31 04:33:42;;;;;;;1.00;0.88;;;11.80;99.90;;;;;;5001817;28;20466;-78
2022/08/31 04:36:11;;;;;;;3.83;1.08;;;11.80;99.90;;;;;;4994348;28;20039;-79
2022/08/31 04:38:37;;;;;;;2.63;1.33;;;11.70;99.90;;;;;;4990729;28;20132;-79
2022/08/31 04:41:08;;;;;;;1.52;1.30;;;11.70;99.90;;;;;;4998288;28;20370;-78
2022/08/31 04:43:35;;;;;;;1.10;0.63;;;11.60;99.90;;;;;;4988933;28;20062;-77
2022/08/31 04:46:03;;;;;;;2.88;0.70;;;11.60;99.90;;;;;;5002630;28;20078;-80
2022/08/31 04:48:29;;;;;;;4.35;0.95;;;11.60;99.90;;;;;;4988307;28;20042;-79
2022/08/31 04:51:02;;;;;;;2.05;1.10;;;11.60;99.90;;;;;;4984276;28;20352;-78
2022/08/31 04:53:28;;;;;;;1.13;0.90;;;11.70;99.90;;;;;;4987088;28;20034;-79
2022/08/31 04:55:54;;;;;;;1.20;1.02;;;11.70;99.90;;;;;;5002364;28;20037;-78
2022/08/31 04:58:19;;;;;;;2.08;1.05;;;11.60;99.90;;;;;;4989227;28;21969;-78
2022/08/31 05:00:45;;;;;;;3.65;1.35;;;11.70;99.90;;;;;;4987595;28;20412;-77
2022/08/31 05:03:11;;;;;;;5.15;1.15;;;11.70;99.90;;;;;;4997538;28;20042;-77
2022/08/31 05:05:40;;;;;;;3.63;0.90;;;11.60;99.90;;;;;;4992560;28;20038;-77
2022/08/31 05:08:06;;;;;;;3.95;1.20;;;11.60;99.90;;;;;;5000826;28;20149;-77
2022/08/31 05:10:32;;;;;;;4.80;1.73;;;11.60;99.90;;;;;;5004001;28;20128;-76
2022/08/31 05:12:57;;;;;;;1.85;1.25;;;11.60;99.90;;;;;;4992443;28;20041;-77
2022/08/31 05:15:23;;;;;;;1.67;0.90;;;11.70;99.90;;;;;;5006347;28;20054;-77
2022/08/31 05:17:48;;;;;;;1.83;1.30;;;11.70;99.90;;;;;;4985280;28;20054;-77
2022/08/31 05:20:14;;;;;;;1.05;0.80;;;11.70;99.90;;;;;;4995738;28;20500;-78
2022/08/31 05:22:40;;;;;;;1.48;1.38;;;11.80;99.90;;;;;;5007817;28;20096;-77
2022/08/31 05:25:06;;;;;;;3.38;0.88;;;11.80;99.90;;;;;;5004817;28;20060;-76
2022/08/31 05:27:33;;;;;;;1.05;0.93;;;11.80;99.90;;;;;;4996293;28;20042;-77
2022/08/31 05:29:59;;;;;;;5.38;0.90;;;11.90;99.90;;;;;;4984872;28;20130;-76
2022/08/31 05:32:25;;;;;;;1.13;0.77;;;11.90;99.90;;;;;;4985399;28;20125;-77
2022/08/31 05:34:51;;;;;;;4.32;1.20;;;12.10;99.90;;;;;;4989390;28;20547;-77
2022/08/31 05:37:17;;;;;;;2.35;1.10;;;12.10;99.90;;;;;;4983116;28;20042;-79
2022/08/31 05:39:43;;;;;;;2.30;1.00;;;12.20;99.90;;;;;;4987897;28;20448;-77
2022/08/31 05:42:08;;;;;;;1.05;0.70;;;12.40;99.90;;;;;;4987347;28;20054;-76
2022/08/31 05:44:35;;;;;;;1.58;1.00;;;12.50;99.90;;;;;;4995207;28;20125;-76
2022/08/31 05:47:04;;;;;;;2.17;1.23;;;12.60;99.90;;;;;;5000169;28;20038;-78
2022/08/31 05:49:30;;;;;;;1.75;1.65;;;12.70;99.90;;;;;;4986419;28;20073;-77
2022/08/31 05:51:56;;;;;;;2.75;1.17;;;12.70;99.90;;;;;;4996769;28;20045;-78
2022/08/31 05:54:21;;;;;;;2.58;1.17;;;12.80;99.90;;;;;;5005039;28;20053;-76
2022/08/31 05:56:47;;;;;;;4.25;1.38;;;12.90;99.90;;;;;;4990440;28;20049;-77
2022/08/31 05:59:13;;;;;;;0.93;0.73;;;13.00;99.90;;;;;;4999703;28;20042;-76
2022/08/31 06:01:40;;;;;;;1.30;1.10;;;13.00;99.90;;;;;;5005506;28;20049;-76
2022/08/31 06:04:07;;;;;;;3.55;0.85;;;13.10;99.90;;;;;;5003439;28;20120;-77
2022/08/31 06:06:34;;;;;;;5.40;0.77;;;13.20;99.90;;;;;;4998386;28;20074;-77
2022/08/31 06:08:59;;;;;;;3.83;1.00;;;13.30;99.90;;;;;;4991519;28;20074;-77
2022/08/31 06:11:27;;;;;;;2.28;0.98;;;13.50;99.90;;;;;;4981728;28;20555;-77
2022/08/31 06:13:55;;;;;;;8.10;1.13;;;13.60;99.90;;;;;;4997792;28;20188;-78
2022/08/31 06:16:23;;;;;;;2.08;0.70;;;13.70;99.90;;;;;;5000634;28;20058;-77
2022/08/31 06:18:52;;;;;;;1.85;1.02;;;14.00;99.90;;;;;;4984459;28;20113;-77
2022/08/31 06:21:20;;;;;;;1.50;0.95;;;14.00;99.90;;;;;;4999748;28;20128;-77
2022/08/31 06:23:49;;;;;;;2.88;1.05;;;14.10;99.90;;;;;;4987934;28;20050;-77
2022/08/31 06:26:17;;;;;;;4.10;1.10;;;14.10;99.90;;;;;;4984926;28;20039;-77
2022/08/31 06:28:45;;;;;;;8.02;1.23;;;14.10;99.90;;;;;;4997457;28;20049;-77
2022/08/31 06:31:28;;;;;;;3.08;1.33;;;14.10;99.90;;;;;;4986210;28;20571;-78
2022/08/31 06:33:54;;;;;;;1.23;1.00;;;14.20;99.90;;;;;;4976478;28;20050;-76
2022/08/31 06:36:25;;;;;;;1.73;0.88;;;14.20;99.90;;;;;;4986146;28;20086;-76
2022/08/31 06:38:51;;;;;;;1.65;1.30;;;14.30;99.90;;;;;;4981406;28;20057;-76
2022/08/31 06:41:20;;;;;;;3.08;1.30;;;14.40;99.90;;;;;;4986817;28;20038;-76
2022/08/31 06:43:47;;;;;;;1.73;1.00;;;14.50;99.90;;;;;;4983799;28;20542;-77
2022/08/31 06:46:13;;;;;;;1.52;0.93;;;14.60;99.90;;;;;;4982147;28;20046;-75
2022/08/31 06:48:39;;;;;;;1.02;0.73;;;14.80;99.90;;;;;;5000159;28;20199;-76
2022/08/31 06:51:07;;;;;;;1.27;0.65;;;14.80;99.90;;;;;;5006240;28;20061;-76
2022/08/31 06:53:34;;;;;;;2.10;0.60;;;15.10;99.90;;;;;;4985790;28;20505;-76
2022/08/31 06:56:05;;;;;;;0.98;0.88;;;15.10;99.90;;;;;;4974914;28;20081;-76
2022/08/31 06:58:32;;;;;;;0.90;0.77;;;15.50;99.90;;;;;;4987446;28;20049;-77
2022/08/31 07:01:05;;;;;;;3.47;0.63;;;15.90;99.90;;;;;;4998813;28;20043;-75
2022/08/31 07:03:35;;;;;;;0.65;0.52;;;15.70;99.90;;;;;;4989483;28;20046;-77
2022/08/31 07:06:21;;;;;;;0.98;0.55;;;16.20;99.90;;;;;;4986418;28;20050;-76
2022/08/31 07:08:54;;;;;;;1.08;0.85;;;17.40;99.90;;;;;;4992675;28;20099;-78
2022/08/31 07:11:27;;;;;;;2.78;0.50;;;16.80;99.90;;;;;;4996314;28;20051;-76
2022/08/31 07:13:54;;;;;;;2.95;0.63;;;16.30;99.90;;;;;;4988184;28;20042;-75
2022/08/31 07:16:22;;;;;;;1.17;0.43;;;16.10;99.90;;;;;;4994668;28;20496;-74
2022/08/31 07:18:48;;;;;;;2.03;1.02;;;16.00;99.90;;;;;;4997269;28;20099;-75
2022/08/31 07:21:18;;;;;;;1.60;0.90;;;16.10;99.90;;;;;;5005888;28;20041;-75
2022/08/31 07:23:45;;;;;;;2.45;1.63;;;16.20;99.90;;;;;;4987065;28;20045;-76
2022/08/31 07:26:13;;;;;;;2.85;1.20;;;16.30;99.90;;;;;;4995488;28;20041;-76
2022/08/31 07:28:42;;;;;;;2.40;0.60;;;16.40;99.90;;;;;;4994672;28;20424;-76
2022/08/31 07:31:09;;;;;;;2.10;0.65;;;16.60;99.90;;;;;;4987079;28;20081;-75
2022/08/31 07:33:38;;;;;;;1.33;0.40;;;16.70;99.90;;;;;;4981251;28;20409;-75
2022/08/31 07:36:09;;;;;;;1.50;0.52;;;16.80;99.90;;;;;;4985174;28;20038;-76
2022/08/31 07:42:08;;;;;;;0.47;0.45;;;17.00;99.90;;;;;;4986213;28;20046;-75
2022/08/31 07:44:22;;;;;;;2.15;0.63;;;17.10;99.90;;;;;;4982361;28;20058;-76
2022/08/31 07:46:49;;;;;;;0.75;0.30;;;17.20;99.90;;;;;;4987760;28;20038;-76
2022/08/31 07:49:16;;;;;;;3.60;0.55;;;17.30;99.90;;;;;;4988512;28;20046;-76
2022/08/31 07:51:50;;;;;;;7.53;0.45;;;17.50;99.90;;;;;;4990347;28;20042;-75
2022/08/31 07:54:22;;;;;;;0.65;0.57;;;17.60;99.90;;;;;;4988454;28;20074;-76
2022/08/31 07:56:52;;;;;;;3.85;0.45;;;17.70;99.90;;;;;;4987151;28;20069;-76
2022/08/31 07:59:18;;;;;;;;;;;17.80;99.90;;;;;;4990274;28;20061;-72
2022/08/31 08:01:45;;;;;;;0.82;0.40;;;17.70;99.90;;;;;;4990136;28;20396;-76
2022/08/31 08:04:17;;;;;;;1.65;0.20;;;17.90;99.90;;;;;;4988384;28;20030;-75
2022/08/31 08:06:43;;;;;;;1.73;0.40;;;18.00;99.90;;;;;;4988327;28;20128;-76
2022/08/31 08:09:10;;;;;;;0.93;0.30;;;18.10;99.90;;;;;;4989546;28;20077;-76
2022/08/31 08:11:40;;;;;;;0.82;0.40;;;17.90;99.90;;;;;;4983608;28;20051;-75
2022/08/31 08:14:08;;;;;;;0.77;0.20;;;18.00;99.90;;;;;;4985400;28;20068;-76
2022/08/31 08:16:33;;;;;;;1.83;0.28;;;18.00;99.90;;;;;;4975900;28;20053;-74
2022/08/31 08:18:59;;;;;;;0.40;0.30;;;18.00;99.90;;;;;;4988973;28;20042;-74
2022/08/31 08:21:26;;;;;;;1.10;0.43;;;18.00;99.90;;;;;;4986395;28;20129;-75
2022/08/31 08:23:51;;;;;;;2.60;0.30;;;18.30;99.90;;;;;;4977471;28;20440;-75
2022/08/31 08:26:17;;;;;;;4.03;0.50;;;18.20;99.90;;;;;;4978793;28;20137;-75
2022/08/31 08:28:43;;;;;;;1.38;0.25;;;18.30;99.90;;;;;;4989586;28;20046;-72
2022/08/31 08:31:15;;;;;;;0.90;0.50;;;18.60;99.90;;;;;;4984151;28;20501;-73
2022/08/31 08:33:41;;;;;;;0.88;0.47;;;18.40;99.90;;;;;;4984474;28;20030;-73
2022/08/31 08:36:08;;;;;;;0.75;0.15;;;18.30;99.90;;;;;;4977179;28;20052;-73
2022/08/31 08:38:37;;;;;;;1.23;0.50;;;18.40;99.90;;;;;;4979652;28;20212;-74
2022/08/31 08:41:09;;;;;;;1.02;0.40;;;18.40;99.90;;;;;;4985972;28;20145;-76
2022/08/31 08:43:40;;;;;;;2.00;0.73;;;18.40;99.90;;;;;;4988747;28;20493;-76
2022/08/31 08:46:08;;;;;;;0.57;0.45;;;18.50;99.90;;;;;;4986525;28;20043;-76
2022/08/31 08:48:39;;;;;;;0.77;0.30;;;18.60;99.90;;;;;;4982977;28;20386;-84
2022/08/31 08:51:18;;;;;;;0.45;0.40;;;18.70;99.90;;;;;;4983189;28;20050;-74
2022/08/31 08:53:48;;;;;;;0.75;0.50;;;18.50;99.90;;;;;;4987490;28;20039;-76
2022/08/31 08:56:13;;;;;;;0.28;0.28;;;18.60;99.90;;;;;;4988010;28;20054;-76
2022/08/31 08:58:42;;;;;;;4.20;0.50;;;18.70;99.90;;;;;;4988673;28;20038;-77
2022/08/31 09:01:12;;;;;;;2.33;0.32;;;18.90;99.90;;;;;;4987289;28;20086;-76
2022/08/31 09:04:00;;;;;;;2.15;0.30;;;19.10;99.90;;;;;;4986431;28;20042;-75
2022/08/31 09:06:36;;;;;;;3.30;0.40;;;19.10;99.90;;;;;;4986672;28;20043;-77
2022/08/31 09:09:16;;;;;;;2.10;0.30;;;19.10;99.90;;;;;;4967727;28;20047;-76
2022/08/31 09:12:03;;;;;;;0.90;0.35;;;19.20;99.90;;;;;;4974829;28;20226;-76
2022/08/31 09:14:47;;;;;;;1.98;0.50;;;19.30;99.90;;;;;;4985116;28;20057;-78
2022/08/31 09:17:33;;;;;;;2.00;0.47;;;19.30;99.90;;;;;;4966459;28;20062;-76
2022/08/31 09:20:00;;;;;;;1.67;0.30;;;19.20;99.90;;;;;;4987335;28;20412;-76
2022/08/31 09:22:45;;;;;;;1.70;0.20;;;19.40;99.90;;;;;;4985021;28;20038;-77
2022/08/31 09:25:18;;;;;;;1.10;0.30;;;19.70;99.90;;;;;;4987200;28;20061;-76
2022/08/31 09:27:55;;;;;;;0.45;0.32;;;19.40;99.90;;;;;;4985778;28;20493;-77
2022/08/31 09:30:36;;;;;;;1.02;0.40;;;19.20;99.90;;;;;;4973096;28;20121;-77
2022/08/31 09:33:02;;;;;;;1.63;0.32;;;19.30;99.90;;;;;;4986022;28;20065;-77
2022/08/31 09:35:40;;;;;;;0.98;0.50;;;19.50;99.90;;;;;;4985755;28;20040;-76
2022/08/31 09:38:11;;;;;;;1.80;0.30;;;19.80;99.90;;;;;;4987000;28;20039;-76
2022/08/31 09:40:43;;;;;;;3.17;0.30;;;19.50;99.90;;;;;;4986990;28;20646;-76
2022/08/31 09:43:29;;;;;;;0.95;0.57;;;19.60;99.90;;;;;;4985611;28;20038;-76
2022/08/31 09:46:01;;;;;;;2.72;0.40;;;19.50;99.90;;;;;;4967326;28;20061;-77
2022/08/31 09:48:51;;;;;;;0.85;0.40;;;19.80;99.90;;;;;;4966866;28;20045;-76
2022/08/31 09:51:23;;;;;;;;;;;20.10;99.90;;;;;;4967363;28;20097;-78
2022/08/31 09:56:54;;;;;;;0.82;0.40;;;20.60;99.90;;;;;;4986760;28;20101;-76
2022/08/31 09:59:36;;;;;;;2.33;0.52;;;19.90;99.90;;;;;;4986656;28;20050;-77
2022/08/31 10:02:25;;;;;;;0.70;0.50;;;20.00;99.90;;;;;;4985442;28;20057;-77
2022/08/31 10:04:57;;;;;;;0.90;0.40;;;20.40;99.90;;;;;;4988280;28;20213;-77
2022/08/31 10:07:36;;;;;;;1.35;0.38;;;20.30;99.90;;;;;;4985451;28;20042;-77
2022/08/31 10:10:08;;;;;;;0.50;0.20;;;20.60;99.90;;;;;;4986832;28;20042;-77
2022/08/31 10:12:41;;;;;;;1.23;0.47;;;20.60;99.90;;;;;;4968538;28;20046;-77
2022/08/31 10:15:36;;;;;;;1.35;0.45;;;19.90;99.90;;;;;;4985629;28;20101;-76
2022/08/31 10:18:12;;;;;;;0.30;0.30;;;19.70;99.90;;;;;;4985796;28;20066;-76
2022/08/31 10:20:47;;;;;;;1.45;0.45;;;19.40;99.90;;;;;;4984972;28;20076;-76
2022/08/31 10:23:33;;;;;;;2.90;0.55;;;19.60;99.90;;;;;;4984202;28;20038;-76
2022/08/31 10:26:11;;;;;;;0.60;0.30;;;19.30;99.90;;;;;;4985566;28;20445;-77
2022/08/31 10:28:49;;;;;;;2.38;0.52;;;19.40;99.90;;;;;;4985884;28;20076;-76
2022/08/31 10:31:28;;;;;;;2.35;0.55;;;19.70;99.90;;;;;;4986131;28;20101;-77
2022/08/31 10:36:40;;;;;;;0.38;0.25;;;19.50;99.90;;;;;;4986110;28;20540;-76
2022/08/31 10:39:19;;;;;;;3.53;0.55;;;20.00;99.90;;;;;;4968437;28;20097;-76
2022/08/31 10:41:48;;;;;;;5.10;0.30;;;20.30;99.90;;;;;;4983490;28;20041;-76
2022/08/31 10:44:27;;;;;;;1.35;0.50;;;20.30;99.90;;;;;;4984799;28;20046;-77
2022/08/31 10:46:58;;;;;;;1.90;0.40;;;20.40;99.90;;;;;;4967644;28;20049;-76
2022/08/31 10:49:25;;;;;;;3.33;0.38;;;20.70;99.90;;;;;;4985696;28;20046;-76
2022/08/31 10:52:17;;;;;;;4.35;0.35;;;21.00;99.90;;;;;;4985802;28;20042;-76
2022/08/31 10:55:14;;;;;;;2.45;0.45;;;20.80;99.90;;;;;;4984118;28;20109;-76
2022/08/31 10:57:55;;;;;;;1.75;0.95;;;20.80;99.90;;;;;;4980560;28;20050;-77
2022/08/31 11:00:46;;;;;;;5.88;0.40;;;21.00;99.90;;;;;;4985399;28;20078;-77
2022/08/31 11:03:36;;;;;;;0.73;0.30;;;20.80;99.90;;;;;;4983151;28;20445;-76
2022/08/31 11:06:04;;;;;;;1.70;1.13;;;20.40;99.90;;;;;;4985105;28;20045;-76
2022/08/31 11:08:54;;;;;;;2.85;0.50;;;20.30;99.90;;;;;;4986161;28;20653;-77
2022/08/31 11:11:41;;;;;;;;;;;20.90;99.90;;;;;;4981157;28;20078;-77
2022/08/31 11:14:32;;;;;;;1.42;0.40;;;20.90;99.90;;;;;;4980590;28;19930;-78
2022/08/31 11:17:10;;;;;;;2.10;0.50;;;21.20;99.90;;;;;;4984786;28;20042;-76
2022/08/31 11:19:55;;;;;;;3.33;0.88;;;21.10;99.90;;;;;;4989632;28;20038;-74
2022/08/31 11:22:40;;;;;;;1.45;0.50;;;21.20;99.90;;;;;;4991143;28;20472;-76
2022/08/31 11:25:13;;;;;;;1.48;0.75;;;20.80;99.90;;;;;;4989653;28;20113;-76
2022/08/31 11:28:10;;;;;;;5.20;0.30;;;20.80;99.90;;;;;;4990891;28;20046;-76
2022/08/31 11:30:44;;;;;;;0.40;0.35;;;21.20;99.90;;;;;;4973951;28;20054;-75
2022/08/31 11:33:18;;;;;;;1.33;0.50;;;21.20;99.90;;;;;;4988839;28;20082;-76
2022/08/31 11:35:58;;;;;;;5.78;1.20;;;21.20;99.90;;;;;;4991025;28;20074;-76
2022/08/31 11:38:47;;;;;;;1.98;0.65;;;21.20;99.90;;;;;;4990363;28;20082;-76
2022/08/31 11:41:31;;;;;;;2.58;0.38;;;21.20;99.90;;;;;;4990159;28;20053;-76
2022/08/31 11:44:02;;;;;;;2.25;0.30;;;21.50;99.90;;;;;;4989731;28;20066;-78
2022/08/31 11:46:37;;;;;;;0.68;0.30;;;21.40;99.90;;;;;;4990377;28;20050;-77
2022/08/31 11:49:04;;;;;;;1.70;0.40;;;21.30;99.90;;;;;;4992487;28;20874;-75
2022/08/31 11:51:35;;;;;;;2.05;0.40;;;21.60;99.90;;;;;;4991058;28;20117;-76
2022/08/31 11:54:04;;;;;;;1.90;0.60;;;21.70;99.90;;;;;;4974283;28;20050;-76
2022/08/31 11:56:35;;;;;;;0.40;0.20;;;21.80;99.90;;;;;;4991100;28;20058;-76
2022/08/31 11:59:20;;;;;;;1.15;0.45;;;21.60;99.90;;;;;;4989857;28;20516;-76
2022/08/31 12:01:46;;;;;;;2.88;0.40;;;21.60;99.90;;;;;;4989352;28;20580;-76
2022/08/31 12:04:42;;;;;;;1.85;0.30;;;21.80;99.90;;;;;;4992161;28;20073;-76
2022/08/31 12:07:23;;;;;;;1.13;0.20;;;21.60;99.90;;;;;;4992219;28;20092;-76
2022/08/31 12:10:10;;;;;;;2.80;0.20;;;21.80;99.90;;;;;;4993047;28;20049;-78
2022/08/31 12:13:08;;;;;;;0.30;0.30;;;22.10;99.90;;;;;;4975342;28;20103;-76
2022/08/31 12:15:39;;;;;;;1.75;0.20;;;21.80;99.90;;;;;;4977898;28;20045;-76
2022/08/31 12:18:30;;;;;;;3.60;0.52;;;21.80;99.90;;;;;;4989304;28;20450;-75
2022/08/31 12:24:23;;;;;;;1.02;0.55;;;22.10;99.90;;;;;;4991097;28;20053;-77
2022/08/31 12:26:58;;;;;;;2.05;0.20;;;22.00;99.90;;;;;;4991587;28;20096;-76
2022/08/31 12:29:35;;;;;;;1.27;0.20;;;21.80;99.90;;;;;;4989127;28;20121;-76
2022/08/31 12:32:21;;;;;;;2.22;0.35;;;22.00;99.90;;;;;;4986099;28;20533;-78
2022/08/31 12:34:55;;;;;;;2.70;0.30;;;21.90;99.90;;;;;;4987397;28;20046;-77
2022/08/31 12:37:32;;;;;;;1.15;0.68;;;21.90;99.90;;;;;;4988267;28;20058;-77
2022/08/31 12:40:10;;;;;;;4.32;1.20;;;21.90;99.90;;;;;;4988170;28;20046;-77
2022/08/31 12:43:01;;;;;;;0.20;0.20;;;22.00;99.90;;;;;;4987083;28;20477;-75
2022/08/31 12:45:50;;;;;;;1.70;0.38;;;22.30;99.90;;;;;;4986460;28;20498;-76
2022/08/31 12:48:25;;;;;;;2.60;0.50;;;22.20;99.90;;;;;;4985382;28;20042;-76
2022/08/31 12:50:56;;;;;;;2.72;0.52;;;22.30;99.90;;;;;;4987142;28;20392;-77
2022/08/31 12:53:59;;;;;;;1.80;0.30;;;22.20;99.90;;;;;;4987772;28;20058;-77
2022/08/31 12:56:30;;;;;;;1.58;0.22;;;22.20;99.90;;;;;;4986642;28;20375;-77
2022/08/31 12:59:26;;;;;;;0.93;0.30;;;22.20;99.90;;;;;;4987018;28;20070;-77
2022/08/31 13:01:53;;;;;;;4.22;0.63;;;22.20;99.90;;;;;;4984088;28;20041;-77
2022/08/31 13:04:20;;;;;;;2.05;0.50;;;22.10;99.90;;;;;;4986093;28;20247;-77
2022/08/31 13:06:47;;;;;;;3.65;0.40;;;22.20;99.90;;;;;;4988127;28;20046;-77
2022/08/31 13:09:34;;;;;;;0.40;0.30;;;22.30;99.90;;;;;;4987084;28;20056;-77
2022/08/31 13:12:00;;;;;;;3.13;0.50;;;22.30;99.90;;;;;;4985115;28;20042;-77
2022/08/31 13:14:32;;;;;;;3.55;0.45;;;22.60;99.90;;;;;;4987322;28;20097;-79
2022/08/31 13:17:17;;;;;;;1.42;0.30;;;22.40;99.90;;;;;;4986325;28;20481;-77
2022/08/31 13:19:57;;;;;;;0.90;0.60;;;22.40;99.90;;;;;;4986213;28;20057;-77
2022/08/31 13:22:29;;;;;;;;;;;22.70;99.90;;;;;;4985488;28;20371;-77
2022/08/31 13:25:09;;;;;;;2.17;0.30;;;22.70;99.90;;;;;;4969823;28;20107;-76